createdAt,value
2017-09-16T00:00:29.051Z,99.99
2017-09-16T00:01:29.090Z,99.99
2017-09-16T00:03:22.096Z,99.99
2017-09-16T00:04:22.135Z,99.99
2017-09-16T00:06:15.123Z,99.99
2017-09-16T00:07:15.179Z,99.99
2017-09-16T00:09:08.182Z,99.99
2017-09-16T00:10:08.221Z,99.99
2017-09-16T00:12:01.203Z,99.99
2017-09-16T00:13:01.262Z,99.99
2017-09-16T00:14:54.277Z,99.98
2017-09-16T00:15:54.316Z,99.99
2017-09-16T00:17:47.299Z,99.99
2017-09-16T00:18:47.358Z,99.99
2017-09-16T00:20:40.362Z,99.99
2017-09-16T00:21:40.401Z,99.99
2017-09-16T00:23:33.405Z,99.99
2017-09-16T00:24:33.445Z,99.99
2017-09-16T00:26:26.433Z,99.99
2017-09-16T00:27:26.490Z,99.99
2017-09-16T00:29:19.496Z,99.99
2017-09-16T00:30:19.534Z,99.99
2017-09-16T00:32:12.520Z,99.99
2017-09-16T00:33:12.583Z,99.69
2017-09-16T00:35:05.584Z,99.99
2017-09-16T00:36:05.623Z,99.99
2017-09-16T00:37:58.605Z,99.99
2017-09-16T00:38:58.665Z,99.99
2017-09-16T00:40:51.683Z,99.99
2017-09-16T00:41:51.715Z,99.99
2017-09-16T00:43:44.720Z,99.99
2017-09-16T00:44:44.760Z,99.99
2017-09-16T00:46:37.759Z,99.99
2017-09-16T00:47:37.821Z,99.99
2017-09-16T00:49:30.828Z,99.99
2017-09-16T00:50:30.867Z,99.99
2017-09-16T00:52:23.848Z,99.99
2017-09-16T00:53:23.907Z,99.99
2017-09-16T00:55:16.914Z,99.99
2017-09-16T00:56:16.974Z,99.99
2017-09-16T00:58:10.442Z,99.99
2017-09-16T00:59:10.500Z,99.99
2017-09-16T01:01:03.509Z,99.99
2017-09-16T01:02:03.545Z,99.99
2017-09-16T01:03:56.548Z,99.99
2017-09-16T01:04:56.588Z,99.99
2017-09-16T01:06:49.576Z,99.99
2017-09-16T01:07:49.636Z,99.99
2017-09-16T01:09:42.643Z,99.99
2017-09-16T01:10:42.681Z,99.99
2017-09-16T01:12:35.669Z,99.99
2017-09-16T01:13:35.724Z,99.99
2017-09-16T01:15:28.730Z,99.99
2017-09-16T01:16:28.766Z,99.99
2017-09-16T01:18:21.747Z,99.99
2017-09-16T01:19:21.807Z,99.99
2017-09-16T01:21:14.811Z,99.99
2017-09-16T01:22:14.849Z,99.99
2017-09-16T01:24:07.851Z,99.99
2017-09-16T01:25:07.890Z,99.99
2017-09-16T01:27:00.878Z,99.99
2017-09-16T01:28:00.939Z,99.99
2017-09-16T01:29:53.943Z,99.99
2017-09-16T01:30:53.979Z,99.99
2017-09-16T01:32:46.966Z,99.99
2017-09-16T01:33:47.021Z,99.99
2017-09-16T01:35:40.026Z,99.99
2017-09-16T01:36:40.066Z,99.99
2017-09-16T01:38:33.051Z,99.99
2017-09-16T01:39:33.109Z,99.99
2017-09-16T01:41:26.111Z,99.99
2017-09-16T01:42:26.149Z,99.99
2017-09-16T01:44:19.152Z,99.99
2017-09-16T01:45:19.190Z,99.99
2017-09-16T01:47:12.173Z,99.99
2017-09-16T01:48:12.233Z,99.99
2017-09-16T01:50:05.236Z,99.99
2017-09-16T01:51:05.275Z,99.99
2017-09-16T01:52:58.255Z,99.99
2017-09-16T01:53:58.315Z,99.99
2017-09-16T01:55:51.354Z,99.99
2017-09-16T01:56:51.359Z,99.99
2017-09-16T01:58:44.847Z,99.99
2017-09-16T01:59:44.906Z,99.99
2017-09-16T02:01:37.909Z,99.99
2017-09-16T02:02:37.948Z,99.99
2017-09-16T02:04:30.951Z,99.99
2017-09-16T02:05:30.989Z,99.99
2017-09-16T02:07:23.973Z,99.99
2017-09-16T02:08:24.031Z,99.99
2017-09-16T02:10:17.035Z,99.99
2017-09-16T02:11:17.073Z,99.99
2017-09-16T02:13:10.059Z,99.99
2017-09-16T02:14:10.116Z,99.99
2017-09-16T02:16:03.120Z,99.99
2017-09-16T02:17:03.163Z,99.99
2017-09-16T02:18:56.141Z,99.99
2017-09-16T02:19:56.200Z,99.99
2017-09-16T02:21:49.204Z,99.99
2017-09-16T02:22:49.240Z,99.99
2017-09-16T02:24:42.254Z,99.99
2017-09-16T02:25:42.290Z,99.99
2017-09-16T02:27:35.276Z,99.99
2017-09-16T02:28:35.335Z,99.99
2017-09-16T02:30:28.342Z,99.99
2017-09-16T02:31:28.383Z,99.99
2017-09-16T02:33:21.364Z,99.99
2017-09-16T02:34:21.421Z,99.99
2017-09-16T02:36:14.422Z,99.99
2017-09-16T02:37:14.463Z,99.99
2017-09-16T02:39:07.447Z,99.99
2017-09-16T02:40:07.502Z,99.99
2017-09-16T02:42:00.506Z,99.99
2017-09-16T02:43:00.542Z,99.99
2017-09-16T02:44:53.542Z,99.99
2017-09-16T02:45:53.583Z,99.99
2017-09-16T02:47:46.569Z,99.99
2017-09-16T02:48:46.625Z,99.99
2017-09-16T02:50:39.630Z,99.99
2017-09-16T02:51:39.669Z,99.99
2017-09-16T02:53:32.653Z,99.99
2017-09-16T02:54:32.713Z,99.99
2017-09-16T02:56:25.709Z,99.99
2017-09-16T02:57:25.748Z,99.99
2017-09-16T02:59:19.237Z,99.99
2017-09-16T03:00:19.296Z,99.99
2017-09-16T03:02:12.298Z,99.99
2017-09-16T03:03:12.338Z,99.99
2017-09-16T03:05:05.339Z,99.99
2017-09-16T03:06:05.379Z,99.99
2017-09-16T03:07:58.364Z,99.99
2017-09-16T03:08:58.419Z,99.99
2017-09-16T03:10:51.425Z,99.99
2017-09-16T03:11:51.462Z,99.99
2017-09-16T03:13:44.447Z,99.99
2017-09-16T03:14:44.504Z,99.99
2017-09-16T03:16:37.509Z,99.99
2017-09-16T03:17:37.545Z,99.99
2017-09-16T03:19:30.526Z,99.99
2017-09-16T03:20:30.586Z,99.99
2017-09-16T03:22:23.589Z,99.99
2017-09-16T03:23:23.627Z,99.99
2017-09-16T03:25:16.630Z,99.99
2017-09-16T03:26:16.669Z,99.99
2017-09-16T03:28:09.653Z,99.99
2017-09-16T03:29:09.714Z,99.99
2017-09-16T03:31:02.720Z,99.99
2017-09-16T03:32:02.756Z,99.99
2017-09-16T03:33:55.737Z,99.99
2017-09-16T03:34:55.798Z,99.99
2017-09-16T03:36:48.801Z,99.99
2017-09-16T03:37:48.837Z,99.99
2017-09-16T03:39:41.823Z,99.99
2017-09-16T03:40:41.885Z,99.99
2017-09-16T03:42:34.885Z,99.99
2017-09-16T03:43:34.925Z,99.99
2017-09-16T03:45:27.925Z,99.99
2017-09-16T03:46:27.963Z,99.99
2017-09-16T03:48:20.947Z,99.99
2017-09-16T03:49:21.006Z,99.99
2017-09-16T03:51:14.007Z,99.99
2017-09-16T03:52:14.047Z,99.99
2017-09-16T03:54:07.033Z,99.99
2017-09-16T03:55:07.087Z,99.99
2017-09-16T03:57:00.093Z,99.99
2017-09-16T03:58:00.134Z,99.99
2017-09-16T03:59:53.116Z,99.99
2017-09-16T04:00:53.176Z,99.99
2017-09-16T04:02:46.177Z,99.99
2017-09-16T04:03:46.215Z,99.99
2017-09-16T04:05:39.217Z,99.99
2017-09-16T04:06:39.255Z,99.99
2017-09-16T04:08:32.243Z,99.99
2017-09-16T04:09:32.297Z,99.99
2017-09-16T04:11:25.301Z,99.99
2017-09-16T04:12:25.340Z,99.99
2017-09-16T04:14:18.320Z,99.99
2017-09-16T04:15:18.380Z,99.99
2017-09-16T04:17:11.384Z,99.99
2017-09-16T04:18:11.422Z,99.99
2017-09-16T04:20:04.410Z,99.99
2017-09-16T04:21:04.467Z,99.99
2017-09-16T04:22:57.472Z,99.99
2017-09-16T04:23:57.508Z,99.99
2017-09-16T04:25:50.514Z,99.99
2017-09-16T04:26:50.551Z,99.99
2017-09-16T04:28:43.538Z,99.99
2017-09-16T04:29:43.593Z,99.99
2017-09-16T04:31:36.594Z,99.99
2017-09-16T04:32:36.632Z,99.99
2017-09-16T04:34:29.621Z,99.99
2017-09-16T04:35:29.675Z,99.99
2017-09-16T04:37:22.679Z,99.99
2017-09-16T04:38:22.717Z,99.99
2017-09-16T04:40:15.698Z,99.99
2017-09-16T04:41:15.759Z,99.99
2017-09-16T04:43:08.759Z,99.99
2017-09-16T04:44:08.798Z,99.99
2017-09-16T04:46:01.803Z,99.99
2017-09-16T04:47:01.841Z,99.99
2017-09-16T04:48:54.832Z,99.99
2017-09-16T04:49:54.883Z,99.99
2017-09-16T04:51:47.891Z,99.99
2017-09-16T04:52:47.929Z,99.99
2017-09-16T04:54:40.915Z,99.99
2017-09-16T04:55:40.971Z,99.99
2017-09-16T04:57:33.974Z,99.99
2017-09-16T04:58:34.201Z,99.99
2017-09-16T05:00:26.995Z,99.99
2017-09-16T05:01:27.054Z,99.99
2017-09-16T05:03:20.059Z,99.99
2017-09-16T05:04:20.097Z,99.99
2017-09-16T05:06:13.101Z,99.99
2017-09-16T05:07:13.143Z,99.99
2017-09-16T05:09:06.121Z,99.99
2017-09-16T05:10:06.181Z,99.99
2017-09-16T05:11:59.187Z,99.99
2017-09-16T05:12:59.227Z,99.99
2017-09-16T05:14:52.214Z,99.99
2017-09-16T05:15:52.268Z,99.99
2017-09-16T05:17:45.270Z,99.99
2017-09-16T05:18:45.311Z,99.99
2017-09-16T05:20:38.801Z,99.99
2017-09-16T05:21:38.862Z,99.99
2017-09-16T05:23:31.871Z,99.99
2017-09-16T05:24:31.908Z,99.99
2017-09-16T05:26:24.911Z,99.99
2017-09-16T05:27:24.952Z,99.99
2017-09-16T05:29:17.933Z,99.99
2017-09-16T05:30:17.993Z,99.99
2017-09-16T05:32:10.995Z,99.99
2017-09-16T05:33:11.033Z,99.99
2017-09-16T05:35:04.026Z,99.99
2017-09-16T05:36:04.075Z,99.99
2017-09-16T05:37:57.081Z,99.99
2017-09-16T05:38:57.122Z,99.99
2017-09-16T05:40:50.109Z,99.99
2017-09-16T05:41:50.166Z,99.99
2017-09-16T05:43:43.171Z,99.99
2017-09-16T05:44:43.223Z,99.99
2017-09-16T05:46:36.216Z,99.99
2017-09-16T05:47:36.257Z,99.99
2017-09-16T05:49:29.239Z,99.99
2017-09-16T05:50:29.298Z,99.99
2017-09-16T05:52:22.306Z,99.99
2017-09-16T05:53:22.343Z,99.99
2017-09-16T05:55:15.324Z,99.99
2017-09-16T05:56:15.415Z,99.99
2017-09-16T05:58:08.388Z,99.99
2017-09-16T05:59:08.427Z,99.99
2017-09-16T06:01:01.418Z,99.99
2017-09-16T06:02:01.476Z,99.99
2017-09-16T06:03:54.483Z,99.99
2017-09-16T06:04:54.520Z,99.99
2017-09-16T06:06:47.546Z,99.84
2017-09-16T06:07:47.566Z,99.99
2017-09-16T06:09:41.063Z,99.75
2017-09-16T06:10:41.116Z,99.75
2017-09-16T06:12:34.119Z,99.18
2017-09-16T06:13:34.157Z,99.18
2017-09-16T06:15:27.146Z,99.99
2017-09-16T06:16:27.200Z,99.65
2017-09-16T06:18:20.213Z,99.27
2017-09-16T06:19:20.264Z,98.79
2017-09-16T06:21:13.229Z,98.75
2017-09-16T06:22:13.288Z,98.75
2017-09-16T06:24:06.299Z,98.46
2017-09-16T06:25:06.344Z,97.61
2017-09-16T06:26:59.350Z,97.61
2017-09-16T06:27:59.386Z,97.22
2017-09-16T06:29:52.376Z,96.94
2017-09-16T06:30:52.434Z,97.32
2017-09-16T06:32:45.438Z,97.51
2017-09-16T06:33:45.477Z,97.80
2017-09-16T06:35:38.461Z,97.84
2017-09-16T06:36:38.522Z,97.80
2017-09-16T06:38:31.543Z,97.99
2017-09-16T06:39:31.574Z,96.84
2017-09-16T06:41:24.554Z,94.46
2017-09-16T06:42:24.609Z,92.21
2017-09-16T06:44:17.618Z,87.20
2017-09-16T06:45:17.655Z,85.14
2017-09-16T06:47:10.663Z,80.82
2017-09-16T06:48:10.700Z,78.80
2017-09-16T06:50:03.685Z,75.20
2017-09-16T06:51:03.747Z,74.66
2017-09-16T06:52:56.758Z,72.94
2017-09-16T06:53:56.800Z,72.55
2017-09-16T06:55:49.785Z,70.67
2017-09-16T06:56:49.846Z,71.57
2017-09-16T06:58:42.864Z,69.68
2017-09-16T06:59:42.904Z,67.76
2017-09-16T07:01:35.904Z,67.13
2017-09-16T07:02:35.969Z,67.13
2017-09-16T07:04:29.494Z,67.76
2017-09-16T07:05:29.532Z,65.43
2017-09-16T07:07:22.546Z,64.37
2017-09-16T07:08:22.588Z,63.54
2017-09-16T07:10:15.582Z,62.32
2017-09-16T07:11:15.644Z,62.93
2017-09-16T07:13:08.657Z,65.08
2017-09-16T07:14:08.702Z,65.40
2017-09-16T07:16:01.696Z,64.43
2017-09-16T07:17:01.759Z,64.34
2017-09-16T07:18:54.775Z,65.11
2017-09-16T07:19:54.817Z,64.28
2017-09-16T07:21:47.815Z,64.53
2017-09-16T07:22:47.880Z,63.38
2017-09-16T07:24:40.897Z,61.97
2017-09-16T07:25:40.943Z,62.96
2017-09-16T07:27:33.956Z,61.39
2017-09-16T07:28:34.001Z,58.63
2017-09-16T07:30:26.997Z,57.37
2017-09-16T07:31:27.063Z,57.86
2017-09-16T07:33:20.080Z,54.96
2017-09-16T07:34:20.124Z,53.56
2017-09-16T07:36:13.126Z,54.74
2017-09-16T07:37:13.194Z,59.83
2017-09-16T07:39:06.214Z,58.79
2017-09-16T07:40:06.263Z,58.50
2017-09-16T07:41:59.261Z,59.94
2017-09-16T07:42:59.328Z,58.31
2017-09-16T07:44:52.346Z,56.70
2017-09-16T07:45:52.390Z,57.06
2017-09-16T07:47:45.423Z,55.77
2017-09-16T07:48:45.476Z,55.12
2017-09-16T07:50:38.457Z,56.55
2017-09-16T07:51:38.522Z,59.17
2017-09-16T07:53:31.541Z,58.86
2017-09-16T07:54:31.588Z,61.84
2017-09-16T07:56:24.588Z,66.93
2017-09-16T07:57:24.656Z,68.81
2017-09-16T07:59:17.680Z,69.07
2017-09-16T08:00:17.722Z,67.60
2017-09-16T08:02:10.718Z,70.60
2017-09-16T08:03:10.787Z,71.52
2017-09-16T08:05:03.807Z,71.08
2017-09-16T08:06:03.854Z,72.19
2017-09-16T08:07:56.870Z,73.15
2017-09-16T08:08:56.918Z,71.66
2017-09-16T08:10:49.915Z,70.38
2017-09-16T08:11:49.979Z,65.91
2017-09-16T08:13:43.003Z,61.26
2017-09-16T08:14:43.050Z,61.84
2017-09-16T08:16:36.044Z,70.83
2017-09-16T08:17:36.111Z,69.96
2017-09-16T08:19:29.126Z,68.91
2017-09-16T08:20:29.169Z,65.62
2017-09-16T08:22:22.167Z,59.43
2017-09-16T08:23:22.229Z,57.24
2017-09-16T08:25:15.253Z,55.12
2017-09-16T08:26:15.297Z,55.05
2017-09-16T08:28:08.313Z,54.64
2017-09-16T08:29:08.360Z,58.95
2017-09-16T08:31:01.362Z,62.29
2017-09-16T08:32:01.432Z,63.48
2017-09-16T08:33:54.454Z,65.75
2017-09-16T08:34:54.498Z,66.74
2017-09-16T08:36:47.495Z,69.58
2017-09-16T08:37:47.572Z,66.87
2017-09-16T08:39:40.583Z,67.86
2017-09-16T08:40:40.628Z,67.86
2017-09-16T08:42:33.625Z,69.71
2017-09-16T08:43:33.691Z,70.54
2017-09-16T08:45:26.712Z,68.79
2017-09-16T08:46:26.760Z,70.09
2017-09-16T08:48:19.817Z,71.84
2017-09-16T08:49:19.818Z,73.15
2017-09-16T08:51:12.821Z,73.57
2017-09-16T08:52:12.896Z,73.57
2017-09-16T08:54:05.899Z,73.90
2017-09-16T08:55:05.941Z,73.41
2017-09-16T08:56:58.941Z,72.17
2017-09-16T08:57:59.017Z,72.27
2017-09-16T08:59:52.032Z,73.28
2017-09-16T09:00:52.062Z,73.47
2017-09-16T09:02:45.060Z,72.45
2017-09-16T09:03:45.123Z,72.52
2017-09-16T09:05:38.138Z,72.61
2017-09-16T09:06:38.183Z,74.33
2017-09-16T09:08:31.231Z,73.09
2017-09-16T09:09:31.245Z,72.17
2017-09-16T09:11:24.243Z,71.94
2017-09-16T09:12:24.308Z,71.88
2017-09-16T09:14:17.337Z,71.25
2017-09-16T09:15:17.368Z,71.40
2017-09-16T09:17:10.373Z,72.03
2017-09-16T09:18:10.427Z,72.71
2017-09-16T09:20:03.448Z,72.27
2017-09-16T09:21:03.495Z,72.20
2017-09-16T09:22:56.488Z,72.11
2017-09-16T09:23:56.585Z,71.15
2017-09-16T09:25:49.566Z,71.25
2017-09-16T09:26:49.609Z,71.76
2017-09-16T09:28:42.622Z,70.13
2017-09-16T09:29:42.666Z,70.42
2017-09-16T09:31:35.661Z,70.19
2017-09-16T09:32:35.725Z,69.81
2017-09-16T09:34:28.775Z,69.90
2017-09-16T09:35:28.787Z,70.09
2017-09-16T09:37:21.820Z,70.54
2017-09-16T09:38:21.844Z,70.54
2017-09-16T09:40:14.894Z,70.86
2017-09-16T09:41:14.907Z,70.67
2017-09-16T09:43:07.918Z,71.05
2017-09-16T09:44:07.994Z,71.05
2017-09-16T09:46:00.994Z,70.67
2017-09-16T09:47:01.034Z,70.00
2017-09-16T09:48:54.067Z,71.82
2017-09-16T09:49:54.095Z,70.67
2017-09-16T09:51:47.099Z,69.26
2017-09-16T09:52:47.179Z,69.84
2017-09-16T09:54:40.176Z,70.03
2017-09-16T09:55:40.210Z,69.33
2017-09-16T09:57:33.211Z,69.90
2017-09-16T09:58:33.488Z,70.54
2017-09-16T10:00:26.303Z,71.78
2017-09-16T10:01:26.344Z,70.73
2017-09-16T10:03:19.340Z,71.78
2017-09-16T10:04:19.411Z,72.52
2017-09-16T10:06:12.441Z,72.84
2017-09-16T10:07:12.464Z,72.84
2017-09-16T10:09:05.477Z,72.07
2017-09-16T10:10:05.522Z,71.53
2017-09-16T10:11:58.517Z,71.15
2017-09-16T10:12:58.585Z,69.81
2017-09-16T10:14:51.616Z,70.09
2017-09-16T10:15:51.634Z,70.09
2017-09-16T10:17:44.628Z,68.88
2017-09-16T10:18:44.693Z,68.69
2017-09-16T10:20:37.706Z,69.96
2017-09-16T10:21:37.750Z,69.71
2017-09-16T10:23:30.744Z,69.42
2017-09-16T10:24:30.808Z,69.90
2017-09-16T10:26:23.823Z,69.29
2017-09-16T10:27:23.867Z,69.68
2017-09-16T10:29:16.885Z,71.02
2017-09-16T10:30:16.925Z,71.40
2017-09-16T10:32:09.921Z,70.00
2017-09-16T10:33:09.993Z,69.71
2017-09-16T10:35:03.019Z,68.79
2017-09-16T10:36:03.063Z,68.79
2017-09-16T10:37:56.057Z,67.86
2017-09-16T10:38:56.119Z,67.96
2017-09-16T10:40:49.136Z,67.60
2017-09-16T10:41:49.179Z,67.50
2017-09-16T10:43:42.173Z,68.88
2017-09-16T10:44:42.238Z,67.73
2017-09-16T10:46:35.256Z,66.29
2017-09-16T10:47:35.307Z,67.16
2017-09-16T10:49:28.311Z,65.72
2017-09-16T10:50:28.355Z,66.39
2017-09-16T10:52:21.349Z,67.41
2017-09-16T10:53:21.413Z,67.50
2017-09-16T10:55:14.438Z,68.27
2017-09-16T10:56:14.475Z,67.60
2017-09-16T10:58:07.478Z,66.61
2017-09-16T10:59:07.537Z,66.71
2017-09-16T11:01:00.554Z,64.25
2017-09-16T11:02:00.598Z,66.64
2017-09-16T11:03:54.100Z,64.56
2017-09-16T11:04:54.164Z,64.85
2017-09-16T11:06:47.178Z,66.06
2017-09-16T11:07:47.221Z,67.41
2017-09-16T11:09:40.235Z,68.27
2017-09-16T11:10:40.279Z,68.75
2017-09-16T11:12:33.274Z,67.41
2017-09-16T11:13:33.340Z,68.75
2017-09-16T11:15:26.359Z,69.58
2017-09-16T11:16:26.405Z,70.19
2017-09-16T11:18:19.394Z,70.06
2017-09-16T11:19:19.463Z,69.29
2017-09-16T11:21:12.508Z,67.32
2017-09-16T11:22:12.524Z,67.69
2017-09-16T11:24:05.519Z,68.75
2017-09-16T11:25:05.594Z,67.50
2017-09-16T11:26:58.615Z,67.60
2017-09-16T11:27:58.644Z,67.38
2017-09-16T11:29:51.673Z,68.75
2017-09-16T11:30:51.699Z,68.56
2017-09-16T11:32:44.699Z,68.75
2017-09-16T11:33:44.767Z,69.39
2017-09-16T11:35:37.779Z,69.77
2017-09-16T11:36:37.823Z,69.96
2017-09-16T11:38:30.833Z,70.64
2017-09-16T11:39:30.886Z,70.92
2017-09-16T11:41:23.895Z,71.11
2017-09-16T11:42:23.939Z,72.32
2017-09-16T11:44:16.938Z,73.28
2017-09-16T11:45:16.997Z,73.57
2017-09-16T11:47:10.023Z,74.05
2017-09-16T11:48:10.054Z,74.43
2017-09-16T11:50:03.068Z,75.93
2017-09-16T11:51:03.111Z,74.77
2017-09-16T11:52:56.113Z,75.07
2017-09-16T11:53:56.167Z,75.20
2017-09-16T11:55:49.194Z,75.39
2017-09-16T11:56:49.234Z,76.15
2017-09-16T11:58:42.227Z,73.38
2017-09-16T11:59:42.290Z,73.76
2017-09-16T12:01:35.303Z,74.62
2017-09-16T12:02:35.347Z,73.47
2017-09-16T12:04:28.861Z,74.05
2017-09-16T12:05:28.912Z,73.66
2017-09-16T12:07:21.932Z,74.52
2017-09-16T12:08:21.973Z,74.91
2017-09-16T12:10:14.988Z,73.47
2017-09-16T12:11:15.027Z,73.57
2017-09-16T12:13:08.023Z,73.57
2017-09-16T12:14:08.085Z,74.33
2017-09-16T12:16:01.102Z,74.33
2017-09-16T12:17:01.147Z,74.52
2017-09-16T12:18:54.142Z,75.39
2017-09-16T12:19:54.203Z,74.62
2017-09-16T12:21:47.219Z,75.58
2017-09-16T12:22:47.266Z,74.91
2017-09-16T12:24:40.261Z,74.24
2017-09-16T12:25:40.319Z,74.52
2017-09-16T12:27:33.335Z,76.15
2017-09-16T12:28:33.407Z,75.87
2017-09-16T12:30:26.416Z,75.39
2017-09-16T12:31:26.435Z,75.58
2017-09-16T12:33:19.435Z,75.87
2017-09-16T12:34:19.492Z,75.39
2017-09-16T12:36:12.507Z,75.10
2017-09-16T12:37:12.546Z,75.20
2017-09-16T12:39:05.545Z,75.87
2017-09-16T12:40:05.611Z,76.25
2017-09-16T12:41:58.623Z,75.87
2017-09-16T12:42:58.667Z,76.06
2017-09-16T12:44:51.658Z,76.82
2017-09-16T12:45:51.721Z,76.89
2017-09-16T12:47:44.733Z,75.87
2017-09-16T12:48:44.805Z,74.82
2017-09-16T12:50:37.791Z,75.96
2017-09-16T12:51:37.832Z,75.04
2017-09-16T12:53:30.825Z,74.76
2017-09-16T12:54:30.888Z,73.83
2017-09-16T12:56:23.959Z,72.88
2017-09-16T12:57:23.962Z,73.35
2017-09-16T12:59:16.954Z,71.92
2017-09-16T13:00:17.018Z,71.05
2017-09-16T13:02:10.029Z,72.68
2017-09-16T13:03:10.073Z,73.00
2017-09-16T13:05:03.069Z,71.57
2017-09-16T13:06:03.133Z,72.33
2017-09-16T13:07:56.149Z,71.47
2017-09-16T13:08:56.193Z,71.19
2017-09-16T13:10:49.204Z,70.13
2017-09-16T13:11:49.249Z,70.32
2017-09-16T13:13:42.242Z,71.19
2017-09-16T13:14:42.305Z,70.99
2017-09-16T13:16:35.319Z,70.61
2017-09-16T13:17:35.365Z,71.09
2017-09-16T13:19:28.356Z,72.20
2017-09-16T13:20:28.421Z,71.09
2017-09-16T13:22:21.434Z,70.99
2017-09-16T13:23:21.478Z,69.56
2017-09-16T13:25:14.473Z,70.03
2017-09-16T13:26:14.538Z,69.46
2017-09-16T13:28:07.560Z,68.88
2017-09-16T13:29:07.606Z,69.46
2017-09-16T13:31:00.619Z,68.02
2017-09-16T13:32:00.660Z,67.63
2017-09-16T13:33:53.658Z,67.73
2017-09-16T13:34:53.724Z,67.73
2017-09-16T13:36:46.746Z,68.21
2017-09-16T13:37:46.781Z,69.74
2017-09-16T13:39:39.774Z,69.74
2017-09-16T13:40:39.845Z,69.56
2017-09-16T13:42:32.853Z,70.23
2017-09-16T13:43:32.896Z,68.79
2017-09-16T13:45:25.890Z,67.44
2017-09-16T13:46:25.955Z,68.88
2017-09-16T13:48:18.970Z,68.79
2017-09-16T13:49:19.015Z,68.82
2017-09-16T13:51:12.029Z,67.54
2017-09-16T13:52:12.072Z,69.01
2017-09-16T13:54:05.067Z,67.38
2017-09-16T13:55:05.133Z,68.53
2017-09-16T13:56:58.152Z,67.67
2017-09-16T13:57:58.193Z,68.98
2017-09-16T13:59:51.186Z,67.57
2017-09-16T14:00:51.251Z,68.63
2017-09-16T14:02:44.266Z,66.10
2017-09-16T14:03:44.313Z,66.19
2017-09-16T14:05:37.305Z,66.58
2017-09-16T14:06:37.368Z,66.58
2017-09-16T14:08:30.385Z,70.99
2017-09-16T14:09:30.428Z,69.36
2017-09-16T14:11:23.446Z,67.92
2017-09-16T14:12:23.489Z,66.45
2017-09-16T14:14:16.490Z,68.56
2017-09-16T14:15:16.546Z,69.13
2017-09-16T14:17:09.561Z,70.09
2017-09-16T14:18:09.602Z,70.67
2017-09-16T14:20:02.596Z,69.62
2017-09-16T14:21:02.660Z,70.00
2017-09-16T14:22:55.677Z,69.71
2017-09-16T14:23:55.723Z,70.09
2017-09-16T14:25:48.715Z,69.62
2017-09-16T14:26:48.780Z,70.57
2017-09-16T14:28:41.795Z,68.66
2017-09-16T14:29:41.839Z,67.54
2017-09-16T14:31:34.854Z,66.96
2017-09-16T14:32:34.898Z,66.58
2017-09-16T14:34:27.915Z,66.61
2017-09-16T14:35:27.958Z,65.75
2017-09-16T14:37:20.979Z,66.42
2017-09-16T14:38:21.022Z,66.23
2017-09-16T14:40:14.022Z,66.42
2017-09-16T14:41:14.084Z,65.46
2017-09-16T14:43:07.098Z,67.06
2017-09-16T14:44:07.145Z,68.02
2017-09-16T14:46:00.133Z,70.03
2017-09-16T14:47:00.197Z,70.42
2017-09-16T14:48:53.210Z,68.98
2017-09-16T14:49:53.258Z,67.83
2017-09-16T14:51:46.318Z,67.79
2017-09-16T14:52:46.323Z,67.44
2017-09-16T14:54:39.308Z,67.69
2017-09-16T14:55:39.370Z,68.46
2017-09-16T14:57:32.385Z,69.33
2017-09-16T14:58:32.429Z,70.00
2017-09-16T15:00:25.425Z,68.85
2017-09-16T15:01:25.495Z,68.08
2017-09-16T15:03:18.502Z,68.27
2017-09-16T15:04:18.546Z,68.27
2017-09-16T15:06:11.539Z,70.09
2017-09-16T15:07:11.603Z,70.29
2017-09-16T15:09:04.615Z,69.71
2017-09-16T15:10:04.660Z,70.25
2017-09-16T15:11:57.682Z,69.96
2017-09-16T15:12:57.718Z,70.06
2017-09-16T15:14:50.714Z,70.15
2017-09-16T15:15:50.775Z,69.58
2017-09-16T15:17:43.804Z,69.39
2017-09-16T15:18:43.836Z,69.13
2017-09-16T15:20:36.830Z,69.13
2017-09-16T15:21:36.894Z,69.04
2017-09-16T15:23:29.909Z,69.71
2017-09-16T15:24:29.951Z,68.95
2017-09-16T15:26:22.950Z,69.52
2017-09-16T15:27:23.010Z,69.71
2017-09-16T15:29:16.029Z,68.75
2017-09-16T15:30:16.073Z,68.56
2017-09-16T15:32:09.089Z,69.52
2017-09-16T15:33:09.129Z,69.81
2017-09-16T15:35:02.128Z,70.96
2017-09-16T15:36:02.195Z,70.76
2017-09-16T15:37:55.212Z,70.67
2017-09-16T15:38:55.257Z,71.15
2017-09-16T15:40:48.249Z,71.11
2017-09-16T15:41:48.313Z,71.21
2017-09-16T15:43:41.327Z,71.02
2017-09-16T15:44:41.369Z,71.88
2017-09-16T15:46:34.362Z,71.21
2017-09-16T15:47:34.425Z,71.56
2017-09-16T15:49:27.454Z,73.19
2017-09-16T15:50:27.485Z,73.38
2017-09-16T15:52:20.499Z,73.47
2017-09-16T15:53:20.541Z,73.09
2017-09-16T15:55:13.533Z,74.24
2017-09-16T15:56:13.599Z,75.20
2017-09-16T15:58:06.614Z,73.28
2017-09-16T15:59:06.657Z,73.28
2017-09-16T16:00:59.653Z,74.82
2017-09-16T16:01:59.716Z,74.43
2017-09-16T16:03:53.243Z,74.52
2017-09-16T16:04:53.279Z,74.85
2017-09-16T16:06:46.271Z,75.20
2017-09-16T16:07:46.335Z,74.27
2017-09-16T16:09:39.351Z,75.43
2017-09-16T16:10:39.393Z,75.29
2017-09-16T16:12:32.414Z,75.87
2017-09-16T16:13:32.465Z,75.87
2017-09-16T16:15:25.447Z,76.06
2017-09-16T16:16:25.512Z,76.25
2017-09-16T16:18:18.527Z,76.92
2017-09-16T16:19:18.574Z,77.69
2017-09-16T16:21:11.562Z,77.69
2017-09-16T16:22:11.624Z,77.40
2017-09-16T16:24:04.648Z,77.21
2017-09-16T16:25:04.692Z,77.11
2017-09-16T16:26:57.695Z,77.50
2017-09-16T16:27:57.760Z,77.21
2017-09-16T16:29:50.785Z,77.69
2017-09-16T16:30:50.826Z,77.17
2017-09-16T16:32:43.843Z,77.40
2017-09-16T16:33:43.887Z,77.21
2017-09-16T16:35:36.886Z,77.78
2017-09-16T16:36:36.945Z,76.92
2017-09-16T16:38:29.961Z,77.50
2017-09-16T16:39:30.006Z,77.36
2017-09-16T16:41:22.996Z,78.13
2017-09-16T16:42:23.060Z,78.32
2017-09-16T16:44:16.078Z,78.42
2017-09-16T16:45:16.122Z,79.28
2017-09-16T16:47:09.114Z,78.80
2017-09-16T16:48:09.181Z,79.18
2017-09-16T16:50:02.191Z,79.08
2017-09-16T16:51:02.242Z,79.37
2017-09-16T16:52:55.250Z,79.47
2017-09-16T16:53:55.290Z,79.85
2017-09-16T16:55:48.288Z,78.89
2017-09-16T16:56:48.350Z,79.24
2017-09-16T16:58:41.368Z,80.00
2017-09-16T16:59:41.403Z,80.48
2017-09-16T17:01:34.395Z,80.19
2017-09-16T17:02:34.462Z,80.67
2017-09-16T17:04:27.499Z,81.82
2017-09-16T17:05:27.511Z,81.44
2017-09-16T17:07:20.511Z,82.30
2017-09-16T17:08:20.576Z,82.59
2017-09-16T17:10:13.588Z,82.40
2017-09-16T17:11:13.634Z,82.30
2017-09-16T17:13:06.649Z,83.93
2017-09-16T17:14:06.690Z,83.26
2017-09-16T17:15:59.681Z,83.79
2017-09-16T17:16:59.756Z,83.31
2017-09-16T17:18:52.762Z,83.89
2017-09-16T17:19:52.815Z,83.89
2017-09-16T17:21:45.802Z,83.89
2017-09-16T17:22:45.861Z,84.75
2017-09-16T17:24:38.880Z,84.55
2017-09-16T17:25:38.919Z,84.46
2017-09-16T17:27:31.926Z,85.51
2017-09-16T17:28:31.974Z,85.51
2017-09-16T17:30:24.993Z,86.18
2017-09-16T17:31:25.035Z,85.71
2017-09-16T17:33:18.051Z,86.37
2017-09-16T17:34:18.091Z,86.52
2017-09-16T17:36:11.081Z,86.71
2017-09-16T17:37:11.155Z,87.29
2017-09-16T17:39:04.169Z,86.61
2017-09-16T17:40:04.206Z,87.48
2017-09-16T17:41:57.200Z,87.38
2017-09-16T17:42:57.264Z,88.53
2017-09-16T17:44:50.277Z,89.39
2017-09-16T17:45:50.329Z,89.39
2017-09-16T17:47:43.317Z,90.06
2017-09-16T17:48:43.381Z,89.67
2017-09-16T17:50:36.428Z,89.29
2017-09-16T17:51:36.439Z,89.29
2017-09-16T17:53:29.508Z,88.81
2017-09-16T17:54:29.490Z,88.72
2017-09-16T17:56:22.488Z,88.81
2017-09-16T17:57:22.546Z,88.72
2017-09-16T17:59:15.588Z,88.53
2017-09-16T18:00:15.632Z,88.53
2017-09-16T18:02:08.597Z,88.81
2017-09-16T18:03:08.662Z,88.91
2017-09-16T18:05:01.707Z,89.48
2017-09-16T18:06:01.714Z,89.67
2017-09-16T18:07:54.711Z,89.39
2017-09-16T18:08:54.787Z,89.10
2017-09-16T18:10:47.793Z,89.01
2017-09-16T18:11:47.836Z,89.29
2017-09-16T18:13:40.866Z,89.29
2017-09-16T18:14:40.895Z,89.39
2017-09-16T18:16:34.088Z,90.30
2017-09-16T18:17:33.947Z,90.01
2017-09-16T18:19:26.958Z,90.39
2017-09-16T18:20:26.999Z,90.63
2017-09-16T18:22:19.994Z,91.20
2017-09-16T18:23:20.063Z,91.20
2017-09-16T18:25:13.112Z,90.30
2017-09-16T18:26:13.130Z,90.30
2017-09-16T18:28:06.147Z,91.11
2017-09-16T18:29:06.214Z,91.11
2017-09-16T18:30:59.223Z,90.63
2017-09-16T18:31:59.267Z,91.35
2017-09-16T18:33:52.278Z,91.20